createdAt,value
2023-05-24T00:00:31.667Z,101945.38
2023-05-24T00:02:59.630Z,101943.75
2023-05-24T00:05:31.122Z,101940.09
2023-05-24T00:08:00.185Z,101944.28
2023-05-24T00:10:28.097Z,101947.28
2023-05-24T00:12:56.516Z,101957.53
2023-05-24T00:15:24.529Z,101952.31
2023-05-24T00:17:52.595Z,101961.69
2023-05-24T00:20:20.863Z,101950.91
2023-05-24T00:22:50.529Z,101956.44
2023-05-24T00:25:18.456Z,101947.69
2023-05-24T00:27:46.506Z,101944.19
2023-05-24T00:30:14.458Z,101948.94
2023-05-24T00:32:42.601Z,101948.06
2023-05-24T00:35:10.794Z,101947.34
2023-05-24T00:37:41.919Z,101933.72
2023-05-24T00:40:12.278Z,101940.97
2023-05-24T00:42:40.120Z,101942.22
2023-05-24T00:45:09.274Z,101938.47
2023-05-24T00:47:37.477Z,101946.97
2023-05-24T00:50:09.385Z,101936.81
2023-05-24T00:52:37.795Z,101949.09
2023-05-24T00:55:06.726Z,101946.47
2023-05-24T00:57:37.748Z,101940.09
2023-05-24T01:00:08.058Z,101947.75
2023-05-24T01:02:36.163Z,101941.50
2023-05-24T01:05:04.121Z,101946.25
2023-05-24T01:07:38.953Z,101933.47
2023-05-24T01:10:15.570Z,101937.22
2023-05-24T01:12:54.868Z,101932.84
2023-05-24T01:15:26.527Z,101937.72
2023-05-24T01:18:05.966Z,101933.22
2023-05-24T01:20:38.452Z,101933.63
2023-05-24T01:23:19.257Z,101937.38
2023-05-24T01:26:07.687Z,101936.72
2023-05-24T01:28:38.842Z,101938.59
2023-05-24T01:31:08.463Z,101933.25
2023-05-24T01:33:36.296Z,101928.00
2023-05-24T01:36:04.209Z,101927.13
2023-05-24T01:38:33.723Z,101928.13
2023-05-24T01:41:10.010Z,101928.13
2023-05-24T01:43:44.417Z,101929.13
2023-05-24T01:46:20.435Z,101932.84
2023-05-24T01:49:00.675Z,101922.00
2023-05-24T01:51:36.697Z,101917.63
2023-05-24T01:54:07.524Z,101929.75
2023-05-24T01:56:36.824Z,101918.88
2023-05-24T01:59:08.224Z,101915.25
2023-05-24T02:01:37.337Z,101914.63
2023-05-24T02:04:05.546Z,101909.25
2023-05-24T02:06:33.454Z,101910.25
2023-05-24T02:09:01.363Z,101912.25
2023-05-24T02:11:29.360Z,101918.75
2023-05-24T02:13:57.176Z,101914.41
2023-05-24T02:16:27.003Z,101918.03
2023-05-24T02:18:55.240Z,101914.50
2023-05-24T02:21:23.522Z,101911.00
2023-05-24T02:23:51.641Z,101911.00
2023-05-24T02:26:19.575Z,101909.41
2023-05-24T02:28:48.247Z,101910.41
2023-05-24T02:31:16.114Z,101900.53
2023-05-24T02:33:45.613Z,101905.91
2023-05-24T02:36:13.616Z,101898.88
2023-05-24T02:38:41.421Z,101898.00
2023-05-24T02:41:09.256Z,101896.25
2023-05-24T02:43:37.159Z,101901.91
2023-05-24T02:46:05.420Z,101909.28
2023-05-24T02:48:33.237Z,101911.25
2023-05-24T02:51:03.424Z,101910.28
2023-05-24T02:53:31.547Z,101910.50
2023-05-24T02:55:59.883Z,101910.63
2023-05-24T02:58:30.451Z,101915.38
2023-05-24T03:00:58.710Z,101911.00
2023-05-24T03:03:26.822Z,101909.25
2023-05-24T03:05:54.955Z,101914.00
2023-05-24T03:08:24.366Z,101922.22
2023-05-24T03:10:52.270Z,101921.63
2023-05-24T03:13:20.427Z,101909.00
2023-05-24T03:15:49.113Z,101912.75
2023-05-24T03:18:17.048Z,101912.84
2023-05-24T03:20:46.499Z,101910.38
2023-05-24T03:23:14.977Z,101905.00
2023-05-24T03:25:45.148Z,101902.25
2023-05-24T03:28:14.630Z,101909.84
2023-05-24T03:30:44.213Z,101915.50
2023-05-24T03:33:12.319Z,101909.19
2023-05-24T03:35:40.246Z,101910.19
2023-05-24T03:38:08.111Z,101904.94
2023-05-24T03:40:38.714Z,101903.19
2023-05-24T03:43:14.275Z,101906.94
2023-05-24T03:46:02.704Z,101915.53
2023-05-24T03:48:30.989Z,101918.28
2023-05-24T03:51:00.290Z,101919.28
2023-05-24T03:53:28.229Z,101927.63
2023-05-24T03:55:56.557Z,101925.88
2023-05-24T03:58:26.097Z,101921.25
2023-05-24T04:00:54.241Z,101916.91
2023-05-24T04:03:26.321Z,101918.88
2023-05-24T04:05:54.798Z,101917.91
2023-05-24T04:08:23.014Z,101922.50
2023-05-24T04:10:50.955Z,101916.16
2023-05-24T04:13:18.754Z,101918.88
2023-05-24T04:15:48.102Z,101926.25
2023-05-24T04:18:16.117Z,101920.00
2023-05-24T04:20:44.341Z,101931.84
2023-05-24T04:23:12.420Z,101929.97
2023-05-24T04:25:40.478Z,101929.09
2023-05-24T04:28:10.366Z,101939.09
2023-05-24T04:30:38.815Z,101937.22
2023-05-24T04:33:08.472Z,101934.38
2023-05-24T04:35:36.683Z,101936.25
2023-05-24T04:38:05.354Z,101945.34
2023-05-24T04:40:33.240Z,101936.25
2023-05-24T04:43:01.148Z,101939.75
2023-05-24T04:45:30.463Z,101943.38
2023-05-24T04:47:58.375Z,101955.22
2023-05-24T04:50:28.651Z,101945.84
2023-05-24T04:52:56.504Z,101951.72
2023-05-24T04:55:24.439Z,101951.72
2023-05-24T04:57:52.292Z,101957.31
2023-05-24T05:00:21.358Z,101950.97
2023-05-24T05:02:49.448Z,101950.09
2023-05-24T05:05:17.905Z,101955.34
2023-05-24T05:07:47.133Z,101957.84
2023-05-24T05:10:15.122Z,101970.44
2023-05-24T05:12:42.995Z,101965.47
2023-05-24T05:15:11.526Z,101976.88
2023-05-24T05:17:39.510Z,101981.13
2023-05-24T05:20:08.933Z,101976.03
2023-05-24T05:22:36.890Z,101979.44
2023-05-24T05:25:10.274Z,101981.56
2023-05-24T05:27:38.177Z,101982.06
2023-05-24T05:30:07.077Z,101985.34
2023-05-24T05:32:35.210Z,101988.69
2023-05-24T05:35:03.268Z,101985.72
2023-05-24T05:37:31.475Z,101983.59
2023-05-24T05:39:59.394Z,101979.72
2023-05-24T05:42:28.778Z,101984.84
2023-05-24T05:44:56.600Z,101983.09
2023-05-24T05:47:24.552Z,101979.09
2023-05-24T05:49:52.417Z,101979.84
2023-05-24T05:52:20.725Z,101979.63
2023-05-24T05:54:48.823Z,101978.47
2023-05-24T05:57:19.606Z,101978.22
2023-05-24T05:59:49.091Z,101981.63
2023-05-24T06:02:18.915Z,101975.09
2023-05-24T06:04:47.087Z,101979.47
2023-05-24T06:07:15.207Z,101975.72
2023-05-24T06:09:43.249Z,101970.13
2023-05-24T06:12:11.216Z,101965.50
2023-05-24T06:14:39.409Z,101968.13
2023-05-24T06:17:09.349Z,101965.97
2023-05-24T06:19:37.217Z,101963.34
2023-05-24T06:22:05.563Z,101964.75
2023-05-24T06:24:34.800Z,101967.34
2023-05-24T06:27:05.142Z,101979.72
2023-05-24T06:29:33.489Z,101973.97
2023-05-24T06:32:01.509Z,101977.25
2023-05-24T06:34:30.860Z,101981.38
2023-05-24T06:36:58.790Z,101987.63
2023-05-24T06:39:26.749Z,101980.72
2023-05-24T06:41:54.889Z,101971.22
2023-05-24T06:44:31.861Z,101985.59
2023-05-24T06:46:59.834Z,101983.34
2023-05-24T06:49:28.383Z,101982.94
2023-05-24T06:51:57.950Z,101975.03
2023-05-24T06:54:25.775Z,101980.41
2023-05-24T06:56:54.010Z,101985.56
2023-05-24T06:59:21.921Z,101983.41
2023-05-24T07:01:53.427Z,101979.41
2023-05-24T07:04:21.551Z,101978.13
2023-05-24T07:06:49.530Z,101984.84
2023-05-24T07:09:18.865Z,101985.06
2023-05-24T07:11:46.795Z,101982.81
2023-05-24T07:14:14.850Z,101987.91
2023-05-24T07:16:42.835Z,101989.00
2023-05-24T07:19:10.821Z,101987.63
2023-05-24T07:21:38.762Z,101989.25
2023-05-24T07:24:07.365Z,101990.44
2023-05-24T07:26:36.739Z,101989.06
2023-05-24T07:29:04.668Z,101994.56
2023-05-24T07:31:34.787Z,101992.53
2023-05-24T07:34:02.802Z,101997.78
2023-05-24T07:36:34.806Z,101993.03
2023-05-24T07:39:05.685Z,101989.53
2023-05-24T07:41:34.145Z,101994.91
2023-05-24T07:44:03.569Z,101989.97
2023-05-24T07:46:31.484Z,101996.66
2023-05-24T07:48:59.755Z,101994.78
2023-05-24T07:51:27.792Z,101993.03
2023-05-24T07:53:55.958Z,101992.16
2023-05-24T07:56:23.887Z,101994.78
2023-05-24T07:58:51.884Z,101989.09
2023-05-24T08:01:21.127Z,101984.97
2023-05-24T08:03:49.821Z,101977.56
2023-05-24T08:06:18.310Z,101979.03
2023-05-24T08:08:47.767Z,101978.75
2023-05-24T08:11:15.951Z,101975.72
2023-05-24T08:13:45.030Z,101985.34
2023-05-24T08:16:12.909Z,101983.19
2023-05-24T08:18:42.194Z,101983.53
2023-05-24T08:21:10.121Z,101988.75
2023-05-24T08:23:38.062Z,101992.00
2023-05-24T08:26:06.329Z,101994.31
2023-05-24T08:28:34.282Z,101992.19
2023-05-24T08:31:02.505Z,101995.81
2023-05-24T08:33:30.359Z,101998.56
2023-05-24T08:35:59.666Z,102004.09
2023-05-24T08:38:28.832Z,101995.47
2023-05-24T08:40:56.860Z,102002.28
2023-05-24T08:43:25.954Z,101996.03
2023-05-24T08:45:55.429Z,101986.13
2023-05-24T08:48:25.137Z,101988.00
2023-05-24T08:50:53.379Z,101986.13
2023-05-24T08:53:23.602Z,101977.47
2023-05-24T08:55:53.308Z,101979.09
2023-05-24T08:58:21.555Z,101973.41
2023-05-24T09:00:49.481Z,101977.66
2023-05-24T09:03:18.773Z,101968.06
2023-05-24T09:05:47.338Z,101966.06
2023-05-24T09:08:18.220Z,101963.03
2023-05-24T09:10:55.451Z,101963.38
2023-05-24T09:13:25.149Z,101960.94
2023-05-24T09:15:54.413Z,101961.22
2023-05-24T09:18:22.384Z,101963.59
2023-05-24T09:20:50.430Z,101961.13
2023-05-24T09:23:19.526Z,101958.69
2023-05-24T09:25:49.514Z,101964.22
2023-05-24T09:28:18.924Z,101970.34
2023-05-24T09:30:58.457Z,101967.16
2023-05-24T09:33:31.215Z,101965.69
2023-05-24T09:36:00.652Z,101966.56
2023-05-24T09:38:29.709Z,101959.75
2023-05-24T09:41:06.919Z,101962.97
2023-05-24T09:43:36.311Z,101957.56
2023-05-24T09:46:05.695Z,101954.81
2023-05-24T09:48:34.027Z,101953.78
2023-05-24T09:51:07.463Z,101952.50
2023-05-24T09:53:36.266Z,101944.38
2023-05-24T09:56:08.464Z,101953.06
2023-05-24T09:58:37.372Z,101949.59
2023-05-24T10:01:07.022Z,101946.41
2023-05-24T10:03:35.471Z,101949.75
2023-05-24T10:06:06.581Z,101943.97
2023-05-24T10:08:36.000Z,101934.25
2023-05-24T10:11:05.159Z,101931.31
2023-05-24T10:13:35.942Z,101932.78
2023-05-24T10:16:04.085Z,101939.03
2023-05-24T10:18:32.075Z,101936.97
2023-05-24T10:21:01.112Z,101941.34
2023-05-24T10:23:32.688Z,101948.47
2023-05-24T10:28:35.033Z,101954.00
2023-05-24T10:31:11.138Z,101945.88
2023-05-24T10:33:40.150Z,101949.78
2023-05-24T10:36:10.850Z,101941.63
2023-05-24T10:38:40.790Z,101947.59
2023-05-24T10:41:09.201Z,101934.06
2023-05-24T10:43:39.068Z,101937.72
2023-05-24T10:46:10.532Z,101937.84
2023-05-24T10:48:40.557Z,101933.38
2023-05-24T10:51:38.634Z,101944.41
2023-05-24T10:54:14.430Z,101936.84
2023-05-24T10:56:43.389Z,101930.28
2023-05-24T10:59:24.287Z,101932.63
2023-05-24T11:01:59.287Z,101937.84
2023-05-24T11:04:29.444Z,101935.09
2023-05-24T11:07:00.399Z,101941.34
2023-05-24T11:09:29.786Z,101940.34
2023-05-24T11:12:02.147Z,101931.03
2023-05-24T11:14:33.149Z,101932.03
2023-05-24T11:17:02.165Z,101941.22
2023-05-24T11:19:35.362Z,101939.19
2023-05-24T11:22:04.861Z,101936.56
2023-05-24T11:24:34.246Z,101931.03
2023-05-24T11:27:03.621Z,101931.16
2023-05-24T11:29:33.304Z,101939.59
2023-05-24T11:32:05.095Z,101942.69
2023-05-24T11:34:33.763Z,101933.06
2023-05-24T11:37:02.938Z,101927.66
2023-05-24T11:39:31.927Z,101927.25
2023-05-24T11:42:00.107Z,101932.19
2023-05-24T11:44:33.165Z,101937.97
2023-05-24T11:47:01.522Z,101931.28
2023-05-24T11:49:29.832Z,101930.69
2023-05-24T11:51:58.779Z,101927.19
2023-05-24T11:54:28.211Z,101921.09
2023-05-24T11:56:56.511Z,101919.63
2023-05-24T11:59:26.283Z,101918.94
2023-05-24T12:02:01.805Z,101919.06
2023-05-24T12:04:31.241Z,101931.41
2023-05-24T12:06:59.364Z,101916.00
2023-05-24T12:09:27.916Z,101919.78
2023-05-24T12:11:57.698Z,101915.28
2023-05-24T12:14:28.508Z,101922.69
2023-05-24T12:16:57.602Z,101920.81
2023-05-24T12:19:34.384Z,101919.78
2023-05-24T12:22:05.775Z,101927.34
2023-05-24T12:24:33.886Z,101918.19
2023-05-24T12:27:06.811Z,101921.53
2023-05-24T12:29:36.479Z,101926.88
2023-05-24T12:32:12.346Z,101926.47
2023-05-24T12:34:43.823Z,101923.28
2023-05-24T12:37:13.783Z,101923.00
2023-05-24T12:39:43.549Z,101919.78
2023-05-24T12:42:13.294Z,101908.19
2023-05-24T12:44:41.894Z,101911.38
2023-05-24T12:47:11.727Z,101916.47
2023-05-24T12:49:39.922Z,101917.06
2023-05-24T12:52:09.441Z,101912.16
2023-05-24T12:54:37.353Z,101911.28
2023-05-24T12:57:05.577Z,101909.94
2023-05-24T12:59:34.952Z,101913.31
2023-05-24T13:02:03.055Z,101913.13
2023-05-24T13:04:33.595Z,101907.59
2023-05-24T13:07:02.932Z,101908.19
2023-05-24T13:09:33.271Z,101910.81
2023-05-24T13:12:01.325Z,101905.28
2023-05-24T13:14:29.484Z,101908.78
2023-05-24T13:16:57.472Z,101913.13
2023-05-24T13:19:25.315Z,101907.47
2023-05-24T13:21:53.347Z,101913.56
2023-05-24T13:24:21.296Z,101905.97
2023-05-24T13:26:52.971Z,101912.09
2023-05-24T13:29:36.583Z,101910.22
2023-05-24T13:32:07.841Z,101912.09
2023-05-24T13:34:36.393Z,101910.94
2023-05-24T13:37:04.727Z,101902.34
2023-05-24T13:39:32.778Z,101908.72
2023-05-24T13:42:02.300Z,101900.31
2023-05-24T13:44:30.684Z,101903.06
2023-05-24T13:46:58.711Z,101896.53
2023-05-24T13:49:26.715Z,101898.41
2023-05-24T13:51:58.013Z,101898.41
2023-05-24T13:54:26.514Z,101909.75
2023-05-24T13:56:57.259Z,101903.34
2023-05-24T13:59:27.171Z,101907.16
2023-05-24T14:01:55.229Z,101908.31
2023-05-24T14:04:23.429Z,101897.56
2023-05-24T14:06:51.350Z,101899.63
2023-05-24T14:09:21.285Z,101899.91
2023-05-24T14:11:49.303Z,101899.03
2023-05-24T14:16:52.376Z,101899.31
2023-05-24T14:19:20.572Z,101891.63
2023-05-24T14:21:48.472Z,101890.59
2023-05-24T14:24:16.937Z,101899.03
2023-05-24T14:26:45.945Z,101903.81
2023-05-24T14:29:14.429Z,101904.69
2023-05-24T14:31:43.050Z,101901.06
2023-05-24T14:34:12.753Z,101901.78
2023-05-24T14:36:41.729Z,101898.31
2023-05-24T14:39:10.188Z,101902.06
2023-05-24T14:41:38.178Z,101904.84
2023-05-24T14:44:06.971Z,101908.66
2023-05-24T14:46:36.012Z,101900.19
2023-05-24T14:49:04.814Z,101892.94
2023-05-24T14:51:34.228Z,101909.06
2023-05-24T14:54:02.304Z,101900.03
2023-05-24T14:56:30.258Z,101898.88
2023-05-24T14:58:58.648Z,101895.13
2023-05-24T15:01:26.904Z,101893.09
2023-05-24T15:03:55.128Z,101892.91
2023-05-24T15:06:23.221Z,101890.88
2023-05-24T15:08:52.977Z,101892.34
2023-05-24T15:11:20.847Z,101888.56
2023-05-24T15:13:48.714Z,101891.00
2023-05-24T15:16:16.535Z,101896.41
2023-05-24T15:18:44.520Z,101887.81
2023-05-24T15:21:12.328Z,101892.16
2023-05-24T15:23:40.320Z,101900.31
2023-05-24T15:26:09.591Z,101898.28
2023-05-24T15:28:37.723Z,101893.75
2023-05-24T15:31:05.910Z,101889.09
2023-05-24T15:33:34.101Z,101890.25
2023-05-24T15:36:02.117Z,101895.06
2023-05-24T15:38:30.109Z,101897.28
2023-05-24T15:40:58.099Z,101902.06
2023-05-24T15:43:27.386Z,101892.91
2023-05-24T15:45:55.482Z,101894.22
2023-05-24T15:48:26.350Z,101888.72
2023-05-24T15:51:42.958Z,101889.00
2023-05-24T15:53:52.290Z,101885.06
2023-05-24T15:56:21.691Z,101888.25
2023-05-24T15:58:51.355Z,101890.88
2023-05-24T16:01:19.958Z,101887.56
2023-05-24T16:03:48.538Z,101892.34
2023-05-24T16:06:16.878Z,101895.41
2023-05-24T16:08:45.108Z,101887.44
2023-05-24T16:11:13.559Z,101886.84
2023-05-24T16:13:41.937Z,101884.53
2023-05-24T16:16:11.499Z,101885.69
2023-05-24T16:18:39.355Z,101887.25
2023-05-24T16:21:07.268Z,101889.28
2023-05-24T16:23:35.082Z,101883.03
2023-05-24T16:26:03.137Z,101884.91
2023-05-24T16:28:31.063Z,101878.50
2023-05-24T16:31:02.426Z,101878.38
2023-05-24T16:33:31.743Z,101882.00
2023-05-24T16:36:03.243Z,101872.84
2023-05-24T16:38:31.646Z,101875.75
2023-05-24T16:41:00.039Z,101881.00
2023-05-24T16:43:27.926Z,101876.34
2023-05-24T16:45:56.236Z,101876.50
2023-05-24T16:48:28.345Z,101872.72
2023-05-24T16:50:58.624Z,101873.72
2023-05-24T16:53:27.676Z,101882.00
2023-05-24T16:55:56.322Z,101870.41
2023-05-24T16:58:25.353Z,101877.81
2023-05-24T17:00:54.473Z,101870.69
2023-05-24T17:06:45.355Z,101881.44
2023-05-24T17:09:13.985Z,101885.06
2023-05-24T17:11:44.285Z,101877.81
2023-05-24T17:14:12.694Z,101884.34
2023-05-24T17:16:40.871Z,101881.72
2023-05-24T17:19:08.826Z,101879.25
2023-05-24T17:21:36.787Z,101873.88
2023-05-24T17:24:06.368Z,101874.75
2023-05-24T17:26:34.499Z,101871.41
2023-05-24T17:29:02.452Z,101865.88
2023-05-24T17:31:30.505Z,101866.91
2023-05-24T17:33:59.006Z,101868.66
2023-05-24T17:36:26.913Z,101867.78
2023-05-24T17:38:54.812Z,101873.28
2023-05-24T17:41:24.080Z,101866.75
2023-05-24T17:43:51.976Z,101871.53
2023-05-24T17:46:20.022Z,101873.44
2023-05-24T17:48:48.024Z,101871.69
2023-05-24T17:51:19.357Z,101876.31
2023-05-24T17:53:47.885Z,101875.44
2023-05-24T17:56:16.138Z,101881.84
2023-05-24T17:58:47.468Z,101873.44
2023-05-24T18:01:15.733Z,101880.97
2023-05-24T18:03:43.901Z,101866.31
2023-05-24T18:06:12.279Z,101862.53
2023-05-24T18:08:43.278Z,101870.81
2023-05-24T18:11:13.246Z,101879.25
2023-05-24T18:13:42.569Z,101874.75
2023-05-24T18:16:13.117Z,101880.41
2023-05-24T18:18:41.398Z,101872.72
2023-05-24T18:21:10.543Z,101873.72
2023-05-24T18:23:38.897Z,101874.88
2023-05-24T18:26:11.956Z,101872.97
2023-05-24T18:28:41.857Z,101876.19
2023-05-24T18:31:11.452Z,101877.03
2023-05-24T18:33:39.546Z,101878.34
2023-05-24T18:36:08.127Z,101884.75
2023-05-24T18:38:36.875Z,101881.97
2023-05-24T18:41:06.495Z,101888.50
2023-05-24T18:43:34.609Z,101887.63
2023-05-24T18:46:02.679Z,101891.28
2023-05-24T18:48:31.999Z,101900.28
2023-05-24T18:51:00.332Z,101893.28
2023-05-24T18:53:28.256Z,101895.91
2023-05-24T18:55:56.151Z,101906.94
2023-05-24T18:58:24.014Z,101893.28
2023-05-24T19:00:52.128Z,101907.97
2023-05-24T19:03:21.468Z,101901.88
2023-05-24T19:05:51.782Z,101909.84
2023-05-24T19:08:19.845Z,101908.28
2023-05-24T19:10:47.744Z,101913.94
2023-05-24T19:13:15.892Z,101914.06
2023-05-24T19:15:44.136Z,101914.06
2023-05-24T19:18:12.312Z,101917.81
2023-05-24T19:20:40.148Z,101923.47
2023-05-24T19:23:09.528Z,101930.88
2023-05-24T19:25:42.047Z,101928.44
2023-05-24T19:28:11.162Z,101928.69
2023-05-24T19:30:39.096Z,101926.94
2023-05-24T19:33:07.392Z,101931.88
2023-05-24T19:35:36.656Z,101933.91
2023-05-24T19:38:04.763Z,101924.88
2023-05-24T19:40:33.967Z,101936.81
2023-05-24T19:43:02.074Z,101937.94
2023-05-24T19:45:30.032Z,101943.63
2023-05-24T19:47:58.608Z,101936.47
2023-05-24T19:50:28.989Z,101942.09
2023-05-24T19:52:58.490Z,101946.16
2023-05-24T19:55:26.478Z,101940.66
2023-05-24T19:57:55.750Z,101942.38
2023-05-24T20:00:23.794Z,101942.66
2023-05-24T20:02:51.879Z,101948.31
2023-05-24T20:05:19.837Z,101944.56
2023-05-24T20:07:47.837Z,101952.81
2023-05-24T20:10:15.681Z,101950.19
2023-05-24T20:12:43.901Z,101947.56
2023-05-24T20:15:16.894Z,101954.72
2023-05-24T20:17:46.498Z,101955.09
2023-05-24T20:20:14.644Z,101951.63
2023-05-24T20:22:42.927Z,101960.91
2023-05-24T20:25:11.371Z,101966.56
2023-05-24T20:27:41.797Z,101969.31
2023-05-24T20:30:10.384Z,101965.25
2023-05-24T20:32:39.715Z,101969.00
2023-05-24T20:35:08.761Z,101978.53
2023-05-24T20:37:36.818Z,101985.34
2023-05-24T20:40:05.920Z,101974.59
2023-05-24T20:42:33.951Z,101980.53
2023-05-24T20:45:01.867Z,101985.28
2023-05-24T20:47:30.387Z,101986.72
2023-05-24T20:49:59.993Z,101983.09
2023-05-24T20:52:28.125Z,101987.22
2023-05-24T20:54:56.517Z,101983.75
2023-05-24T20:57:24.425Z,101990.41
2023-05-24T20:59:52.337Z,101993.41
2023-05-24T21:02:20.368Z,101990.94
2023-05-24T21:04:48.232Z,101986.81
2023-05-24T21:07:17.488Z,101986.69
2023-05-24T21:09:45.457Z,101990.00
2023-05-24T21:12:13.383Z,101984.00
2023-05-24T21:14:41.424Z,101992.41
2023-05-24T21:17:09.376Z,101989.91
2023-05-24T21:19:37.284Z,102001.00
2023-05-24T21:22:05.538Z,101999.53
2023-05-24T21:24:34.802Z,102010.56
2023-05-24T21:27:02.690Z,102006.31
2023-05-24T21:29:30.642Z,102005.56
2023-05-24T21:31:58.661Z,102007.59
2023-05-24T21:34:27.369Z,102010.47
2023-05-24T21:36:55.221Z,102005.09
2023-05-24T21:39:23.116Z,102013.47
2023-05-24T21:41:52.358Z,102002.34
2023-05-24T21:44:20.212Z,102010.84
2023-05-24T21:46:48.431Z,102001.88
2023-05-24T21:49:17.254Z,102004.75
2023-05-24T21:51:45.311Z,102003.00
2023-05-24T21:54:13.085Z,102001.66
2023-05-24T21:56:40.973Z,102005.13
2023-05-24T21:59:10.162Z,102007.16
2023-05-24T22:01:38.012Z,102008.41
2023-05-24T22:04:06.558Z,102014.91
2023-05-24T22:06:34.385Z,102016.06
2023-05-24T22:09:02.602Z,102016.31
2023-05-24T22:11:30.570Z,102021.06
2023-05-24T22:13:58.556Z,102017.72
2023-05-24T22:16:27.940Z,102030.72
2023-05-24T22:18:56.627Z,102030.97
2023-05-24T22:21:24.619Z,102026.72
2023-05-24T22:23:52.508Z,102039.72
2023-05-24T22:26:20.423Z,102032.47
2023-05-24T22:28:52.638Z,102032.47
2023-05-24T22:31:21.661Z,102029.59
2023-05-24T22:33:50.964Z,102035.63
2023-05-24T22:36:18.874Z,102039.63
2023-05-24T22:38:46.699Z,102034.22
2023-05-24T22:41:14.683Z,102035.13
2023-05-24T22:43:42.639Z,102029.72
2023-05-24T22:46:10.859Z,102025.38
2023-05-24T22:48:40.547Z,102035.63
2023-05-24T22:51:12.037Z,102032.88
2023-05-24T22:53:39.910Z,102030.53
2023-05-24T22:56:10.424Z,102024.25
2023-05-24T22:58:38.656Z,102027.13
2023-05-24T23:01:06.688Z,102029.13
2023-05-24T23:03:34.736Z,102034.63
2023-05-24T23:06:04.412Z,102034.91
2023-05-24T23:08:34.678Z,102032.16
2023-05-24T23:11:10.176Z,102049.84
2023-05-24T23:13:38.669Z,102047.38
2023-05-24T23:16:07.207Z,102044.63
2023-05-24T23:18:51.593Z,102043.00
2023-05-24T23:26:42.842Z,102042.09
2023-05-24T23:29:59.858Z,102044.97
2023-05-24T23:32:39.550Z,102046.00
